Nederlandse vliegveldverwachtingen (TAF)

Luchtvaartmeteorologische informatie voor operationeel gebruik en vluchtvoorbereiding is beschikbaar op www.luchtvaartmeteo.nl.

ZCZC
FT261100 EHAM     AMSTERDAM/SCHIPHOL   NLD   -3 m.
TAF EHAM 261102Z 2612/2718 24012KT 9999 SCT025
    PROB30 TEMPO 2612/2620 25015G25KT 6000 SHRA SCT025CB
    BECMG 2615/2618 21007KT
    BECMG 2703/2706 18015KT 7000 -RA SCT012 BKN018
    PROB30 TEMPO 2704/2706 4000 RADZ BKN012
    BECMG 2706/2708 22018G28KT 9999 NSW SCT025 BKN035
    PROB40 TEMPO 2710/2713 23021G32KT 6000 SHRA SCT020CB
    BKN030
    PROB30 TEMPO 2713/2718 7000 RA -SHRA SCT020TCU BKN025=

ZCZC
FT261100 EHBK     MAASTRICHT/MAASTRICHT-AACHEN   NLD   114 m.
TAF EHBK 261110Z 2612/2718 26007KT 9999 BKN030
    PROB30 TEMPO 2615/2621 22012G22KT 6000 SHRA SCT035CB
    PROB40 TEMPO 2705/2710 6000 RA SHRA BKN016 SCT020CB
    BECMG 2707/2710 23015G25KT
    TEMPO 2710/2714 26020G30KT 4000 SHRAGS SCT025CB
    PROB30 TEMPO 2714/2718 6000 SHRA SCT025CB=

ZCZC
FT261100 EHGG     GRONINGEN/EELDE   NLD   5 m.
TAF EHGG 261110Z 2612/2718 24010KT 9999 BKN025
    PROB40 TEMPO 2614/2618 26012G22KT 6000 SHRA SCT030CB
    BECMG 2618/2621 16005KT
    BECMG 2704/2707 20012KT
    PROB40 TEMPO 2707/2711 6000 RA SHRA BKN014 SCT020CB
    PROB30 TEMPO 2711/2718 24015G25KT 6000 SHRA SCT025CB=

ZCZC
FT261100 EHRD     ROTTERDAM/THE HAGUE AIRPORT   NLD   -5 m.
TAF EHRD 261102Z 2612/2718 24013KT 9999 SCT025
    PROB30 TEMPO 2612/2620 24015G25KT 6000 SHRA SCT025CB
    BECMG 2615/2618 21007KT
    BECMG 2703/2706 18015KT 7000 -RA SCT012 BKN018
    PROB30 TEMPO 2704/2706 4000 RADZ BKN012
    BECMG 2706/2708 22018G28KT 9999 NSW SCT025 BKN035
    PROB40 TEMPO 2710/2713 23021G32KT 6000 SHRA SCT020CB
    BKN030
    PROB30 TEMPO 2713/2718 7000 RA -SHRA SCT020TCU BKN025=

ZCZC
FT261100 EHEH     EINDHOVEN/EINDHOVEN   NLD   22 m.
TAF EHEH 261132Z 2612/2718 22010KT 9999 SCT030
    PROB30 TEMPO 2612/2615 23010G20KT FEW025CB SCT030
    TEMPO 2615/2622 4000 SHRA SCT025CB BKN030
    TEMPO 2704/2709 4000 RA SHRA SCT012 BKN015 SCT020CB
    BECMG 2705/2708 23012G22KT
    TEMPO 2711/2718 25015G30KT FEW020CB BKN025=

ZCZC
FC261300 EHKD     DE KOOY/DE KOOY   NLD   1 m.
TAF EHKD 261225Z 2613/2701 23010KT 9999 FEW012 SCT250
    PROB30 TEMPO 2613/2616 SCT012
    PROB30 TEMPO 2614/2615 23010G20KT SCT015CB SCT025
    TEMPO 2615/2620 4000 SHRA SCT018CB BKN030=

ZCZC
FC261300 EHLW     LEEUWARDEN/LEEUWARDEN   NLD   1 m.
TAF EHLW 261216Z 2613/2701 24009KT 9999 FEW018 SCT020
    PROB30 TEMPO 2614/2615 24010G20KT SCT018CB SCT025
    TEMPO 2615/2620 4000 SHRA SCT018CB BKN030=

ZCZC
FC261300 EHVK     VOLKEL/VOLKEL   NLD   21 m.
TAF COR EHVK 261220Z 2613/2701 24010KT 9999 SCT030
    PROB30 TEMPO 2613/2615 24010G20KT FEW025CB SCT030
    TEMPO 2615/2623 4000 SHRA SCT025CB BKN030=

ZCZC
FC261300 EHWO AAA WOENSDRECHT/WOENSDRECHT   NLD   19 m.
TAF AMD EHWO 261319Z 2613/2701 CNL=

ZCZC
FC261300 EHGR AAB GILZE-RIJEN/GILZE-RIJEN   NLD   14 m.
TAF AMD EHGR 261419Z 2614/2701 CNL=

26/04/2019 16.30 uur LT